Time;durP1;ratioP1;P1;durP2;ratioP2;P2;SDS_P1;SDS_P2;PMS_P1;PMS_P2;Temp;Humidity;BMP_temperature;BMP_pressure;BME280_temperature;BME280_humidity;BME280_pressure;Samples;Min_cycle;Max_cycle;Signal;HPM_P1;HPM_P2
2021/09/28 00:01:31;;;;;;;;;;;;;;;16.69;100.00;99542.97;5058988;28;19917;-63
2021/09/28 00:03:57;;;;;;;;;;;;;;;16.52;100.00;99548.97;5062498;28;20262;-63
2021/09/28 00:06:22;;;;;;;;;;;;;;;16.44;100.00;99551.91;5075911;28;20721;-63
2021/09/28 00:08:47;;;;;;;;;;;;;;;15.99;100.00;99542.78;5079683;28;19922;-63
2021/09/28 00:11:13;;;;;;;;;;;;;;;16.12;100.00;99552.59;5077662;28;19916;-64
2021/09/28 00:13:39;;;;;;;;;;;;;;;15.60;100.00;99550.53;5080806;28;20018;-64
2021/09/28 00:16:04;;;;;;;;;;;;;;;15.68;100.00;99548.47;5066904;28;19924;-63
2021/09/28 00:18:30;;;;;;;;;;;;;;;16.01;100.00;99547.88;5067572;28;19985;-63
2021/09/28 00:20:55;;;;;;;;;;;;;;;16.33;100.00;99548.16;5077578;28;20002;-63
2021/09/28 00:23:20;;;;;;;;;;;;;;;16.24;100.00;99550.28;5065573;28;19918;-63
2021/09/28 00:25:49;;;;;;;;;;;;;;;16.10;100.00;99552.66;5099219;28;20300;-63
2021/09/28 00:28:14;;;;;;;;;;;;;;;16.19;100.00;99556.59;5079093;28;19918;-63
2021/09/28 00:30:40;;;;;;;;;;;;;;;16.02;100.00;99554.78;5097373;28;20015;-64
2021/09/28 00:33:05;;;;;;;;;;;;;;;15.66;100.00;99558.91;5068067;28;19923;-63
2021/09/28 00:35:30;;;;;;;;;;;;;;;15.78;100.00;99560.16;5080825;28;19916;-63
2021/09/28 00:37:56;;;;;;;;;;;;;;;16.03;100.00;99559.03;5079678;28;20007;-64
2021/09/28 00:40:21;;;;;;;;;;;;;;;15.67;100.00;99562.38;5080652;28;19966;-64
2021/09/28 00:42:46;;;;;;;;;;;;;;;15.91;100.00;99564.81;5082845;28;20290;-63
2021/09/28 00:45:12;;;;;;;;;;;;;;;15.58;100.00;99565.38;5066062;28;19916;-63
2021/09/28 00:47:37;;;;;;;;;;;;;;;15.91;100.00;99559.63;5066963;28;19965;-63
2021/09/28 00:50:03;;;;;;;;;;;;;;;15.61;100.00;99567.81;5067441;28;19915;-63
2021/09/28 00:52:31;;;;;;;;;;;;;;;15.23;100.00;99578.91;5076967;28;19984;-63
2021/09/28 00:54:56;;;;;;;;;;;;;;;15.44;100.00;99569.41;5067071;28;19924;-63
2021/09/28 00:57:22;;;;;;;;;;;;;;;15.45;100.00;99576.25;5067416;28;19916;-63
2021/09/28 00:59:48;;;;;;;;;;;;;;;15.31;100.00;99576.00;5067100;28;20006;-63
2021/09/28 01:02:13;;;;;;;;;;;;;;;14.89;100.00;99586.41;5098811;28;19912;-63
2021/09/28 01:04:39;;;;;;;;;;;;;;;14.94;100.00;99587.91;5078946;28;19915;-63
2021/09/28 01:07:05;;;;;;;;;;;;;;;14.94;100.00;99592.22;5046424;28;19928;-63
2021/09/28 01:09:33;;;;;;;;;;;;;;;15.25;100.00;99577.09;5056114;28;19923;-63
2021/09/28 01:11:59;;;;;;;;;;;;;;;14.88;100.00;99587.31;5055844;28;20008;-63
2021/09/28 01:14:24;;;;;;;;;;;;;;;15.59;100.00;99580.03;5044786;28;20344;-63
2021/09/28 01:16:50;;;;;;;;;;;;;;;15.64;100.00;99585.84;5056641;28;19916;-63
2021/09/28 01:19:15;;;;;;;;;;;;;;;15.61;100.00;99581.63;5043098;28;19921;-63
2021/09/28 01:21:40;;;;;;;;;;;;;;;15.35;100.00;99592.28;5044062;28;19917;-63
2021/09/28 01:24:06;;;;;;;;;;;;;;;15.42;100.00;99589.38;5057222;28;19913;-63
2021/09/28 01:26:32;;;;;;;;;;;;;;;15.70;100.00;99593.38;5044536;28;19916;-63
2021/09/28 01:28:58;;;;;;;;;;;;;;;15.04;100.00;99599.59;5055451;28;20011;-63
2021/09/28 01:31:23;;;;;;;;;;;;;;;14.80;100.00;99600.56;5060849;28;20597;-63
2021/09/28 01:33:49;;;;;;;;;;;;;;;14.95;100.00;99605.16;5059938;28;19916;-63
2021/09/28 01:36:15;;;;;;;;;;;;;;;14.83;100.00;99610.84;5055421;28;19970;-63
2021/09/28 01:38:40;;;;;;;;;;;;;;;15.03;100.00;99612.66;5057443;28;19916;-63
2021/09/28 01:41:06;;;;;;;;;;;;;;;15.33;100.00;99610.53;5047515;28;19924;-63
2021/09/28 01:43:31;;;;;;;;;;;;;;;15.56;100.00;99601.78;5057371;28;19920;-63
2021/09/28 01:45:57;;;;;;;;;;;;;;;15.70;100.00;99598.56;5055549;28;20003;-63
2021/09/28 01:48:30;;;;;;;;;;;;;;;15.34;100.00;99601.00;5060737;28;20031;-64
2021/09/28 01:50:56;;;;;;;;;;;;;;;15.09;100.00;99602.00;5037194;28;19938;-63
2021/09/28 01:53:21;;;;;;;;;;;;;;;15.23;100.00;99604.03;5055269;28;19921;-63
2021/09/28 01:55:46;;;;;;;;;;;;;;;15.72;100.00;99594.19;5056374;28;19924;-63
2021/09/28 01:58:14;;;;;;;;;;;;;;;15.52;100.00;99599.38;5055739;28;19946;-63
2021/09/28 02:00:39;;;;;;;;;;;;;;;15.62;100.00;99611.03;5056940;28;19924;-63
2021/09/28 02:03:05;;;;;;;;;;;;;;;15.51;100.00;99601.13;5057156;28;19917;-63
2021/09/28 02:05:30;;;;;;;;;;;;;;;15.62;100.00;99608.44;5057367;28;19932;-63
2021/09/28 02:07:56;;;;;;;;;;;;;;;14.95;100.00;99618.13;5062415;28;19991;-63
2021/09/28 02:10:21;;;;;;;;;;;;;;;14.94;100.00;99616.44;5042468;28;20664;-63
2021/09/28 02:12:46;;;;;;;;;;;;;;;15.05;100.00;99619.44;5062596;28;19916;-63
2021/09/28 02:15:12;;;;;;;;;;;;;;;15.06;100.00;99613.34;5061250;28;20345;-63
2021/09/28 02:17:38;;;;;;;;;;;;;;;15.36;100.00;99612.16;5061134;28;19924;-64
2021/09/28 02:20:03;;;;;;;;;;;;;;;15.26;100.00;99622.06;5059863;28;20003;-63
2021/09/28 02:22:29;;;;;;;;;;;;;;;15.66;100.00;99610.00;5061486;28;20019;-63
2021/09/28 02:24:54;;;;;;;;;;;;;;;15.69;100.00;99607.25;5060835;28;20433;-63
2021/09/28 02:27:19;;;;;;;;;;;;;;;15.59;100.00;99612.00;5036431;28;19916;-63
2021/09/28 02:29:45;;;;;;;;;;;;;;;15.91;100.00;99611.56;5042026;28;19950;-63
2021/09/28 02:32:10;;;;;;;;;;;;;;;15.98;100.00;99611.22;5055810;28;20015;-63
2021/09/28 02:34:35;;;;;;;;;;;;;;;15.94;100.00;99608.81;5058290;28;19963;-63
2021/09/28 02:37:04;;;;;;;;;;;;;;;15.96;100.00;99602.63;5044181;28;19917;-63
2021/09/28 02:39:30;;;;;;;;;;;;;;;15.51;100.00;99613.25;5060760;28;19923;-63
2021/09/28 02:41:55;;;;;;;;;;;;;;;15.92;100.00;99602.84;5042975;28;20451;-63
2021/09/28 02:44:21;;;;;;;;;;;;;;;15.31;100.00;99614.94;5043766;28;19916;-63
2021/09/28 02:46:46;;;;;;;;;;;;;;;15.48;100.00;99604.66;5044304;28;19935;-63
2021/09/28 02:49:12;;;;;;;;;;;;;;;15.61;100.00;99614.56;5061325;28;20057;-63
2021/09/28 02:51:38;;;;;;;;;;;;;;;15.23;100.00;99620.44;5060325;28;19921;-63
2021/09/28 02:54:03;;;;;;;;;;;;;;;15.27;100.00;99616.81;5060460;28;19917;-63
2021/09/28 02:56:29;;;;;;;;;;;;;;;15.50;100.00;99611.56;5060248;28;19921;-63
2021/09/28 02:58:54;;;;;;;;;;;;;;;15.58;100.00;99618.13;5060254;28;19920;-63
2021/09/28 03:01:19;;;;;;;;;;;;;;;15.73;100.00;99623.59;5043579;28;19920;-63
2021/09/28 03:03:45;;;;;;;;;;;;;;;15.69;100.00;99623.72;5044539;28;20007;-64
2021/09/28 03:06:10;;;;;;;;;;;;;;;15.47;100.00;99621.16;5072276;28;20455;-63
2021/09/28 03:08:35;;;;;;;;;;;;;;;15.60;100.00;99616.31;5063132;28;19923;-63
2021/09/28 03:11:01;;;;;;;;;;;;;;;15.69;100.00;99618.50;5097294;28;19912;-63
2021/09/28 03:13:26;;;;;;;;;;;;;;;15.62;100.00;99617.09;5078350;28;19915;-63
2021/09/28 03:15:52;;;;;;;;;;;;;;;15.46;100.00;99616.03;5078934;28;20336;-63
2021/09/28 03:18:17;;;;;;;;;;;;;;;15.61;100.00;99619.75;5080587;28;20405;-63
2021/09/28 03:20:42;;;;;;;;;;;;;;;15.59;100.00;99616.38;5063218;28;20080;-62
2021/09/28 03:23:08;;;;;;;;;;;;;;;15.73;100.00;99621.00;5065580;28;20020;-63
2021/09/28 03:25:35;;;;;;;;;;;;;;;15.57;100.00;99613.81;5076243;28;19912;-62
2021/09/28 03:28:01;;;;;;;;;;;;;;;15.47;100.00;99617.72;5063621;28;19915;-62
2021/09/28 03:30:26;;;;;;;;;;;;;;;15.33;100.00;99620.91;5078630;28;19925;-63
2021/09/28 03:32:51;;;;;;;;;;;;;;;15.43;100.00;99629.16;5095826;28;20532;-63
2021/09/28 03:35:17;;;;;;;;;;;;;;;15.34;100.00;99624.34;5077391;28;20871;-63
2021/09/28 03:37:42;;;;;;;;;;;;;;;15.12;100.00;99627.84;5095324;28;19985;-63
2021/09/28 03:40:09;;;;;;;;;;;;;;;14.80;100.00;99631.69;5065431;28;19919;-63
2021/09/28 03:42:34;;;;;;;;;;;;;;;14.52;100.00;99626.69;5074942;28;19912;-63
2021/09/28 03:44:59;;;;;;;;;;;;;;;14.36;100.00;99632.44;5066637;28;19916;-63
2021/09/28 03:47:25;;;;;;;;;;;;;;;14.95;100.00;99636.28;5068009;28;19920;-63
2021/09/28 03:49:50;;;;;;;;;;;;;;;14.38;100.00;99640.19;5094897;28;20531;-63
2021/09/28 03:52:15;;;;;;;;;;;;;;;14.66;100.00;99640.00;5065159;28;20677;-62
2021/09/28 03:54:44;;;;;;;;;;;;;;;14.75;100.00;99649.19;5067909;28;20056;-62
2021/09/28 03:57:17;;;;;;;;;;;;;;;14.21;100.00;99646.84;5080925;28;20293;-63
2021/09/28 03:59:46;;;;;;;;;;;;;;;14.41;100.00;99655.59;5068716;28;19931;-62
2021/09/28 04:02:17;;;;;;;;;;;;;;;14.37;100.00;99656.66;5064914;28;19982;-62
2021/09/28 04:04:43;;;;;;;;;;;;;;;14.45;100.00;99657.19;5079854;28;19912;-62
2021/09/28 04:07:08;;;;;;;;;;;;;;;14.72;100.00;99662.28;5080636;28;19920;-62
2021/09/28 04:09:34;;;;;;;;;;;;;;;14.83;100.00;99663.53;5076338;28;20438;-63
2021/09/28 04:12:01;;;;;;;;;;;;;;;14.96;100.00;99666.50;5066705;28;20236;-63
2021/09/28 04:14:27;;;;;;;;;;;;;;;14.48;100.00;99666.59;5083050;28;20387;-63
2021/09/28 04:16:52;;;;;;;;;;;;;;;14.88;100.00;99671.13;5075136;28;19916;-63
2021/09/28 04:19:17;;;;;;;;;;;;;;;14.73;100.00;99672.56;5080437;28;19917;-62
2021/09/28 04:21:44;;;;;;;;;;;;;;;14.99;100.00;99676.75;5076709;28;20343;-63
2021/09/28 04:24:10;;;;;;;;;;;;;;;14.88;100.00;99675.50;5075526;28;19920;-63
2021/09/28 04:26:36;;;;;;;;;;;;;;;14.66;100.00;99678.88;5087691;28;20384;-63
2021/09/28 04:29:01;;;;;;;;;;;;;;;14.82;100.00;99676.56;5073802;28;20413;-63
2021/09/28 04:31:27;;;;;;;;;;;;;;;14.79;100.00;99676.69;5071286;28;19931;-62
2021/09/28 04:33:52;;;;;;;;;;;;;;;15.09;100.00;99689.34;5066707;28;19917;-63
2021/09/28 04:36:17;;;;;;;;;;;;;;;14.68;100.00;99679.69;5069484;28;19922;-63
2021/09/28 04:38:43;;;;;;;;;;;;;;;14.39;100.00;99696.28;5067761;28;19920;-63
2021/09/28 04:41:08;;;;;;;;;;;;;;;14.59;100.00;99690.41;5070043;28;19920;-63
2021/09/28 04:43:33;;;;;;;;;;;;;;;14.71;100.00;99696.84;5071277;28;21738;-63
2021/09/28 04:45:58;;;;;;;;;;;;;;;14.79;100.00;99697.44;5070534;28;19912;-63
2021/09/28 04:48:24;;;;;;;;;;;;;;;14.75;100.00;99695.84;5065105;28;20293;-63
2021/09/28 04:50:52;;;;;;;;;;;;;;;14.44;100.00;99703.00;5069225;28;19913;-63
2021/09/28 04:53:18;;;;;;;;;;;;;;;14.58;100.00;99705.09;5068254;28;19923;-63
2021/09/28 04:55:43;;;;;;;;;;;;;;;14.55;100.00;99697.47;5069443;28;20677;-62
2021/09/28 04:58:08;;;;;;;;;;;;;;;14.72;100.00;99695.97;5072497;28;20388;-62
2021/09/28 05:00:33;;;;;;;;;;;;;;;14.43;100.00;99695.25;5061803;28;19977;-63
2021/09/28 05:02:59;;;;;;;;;;;;;;;14.44;100.00;99702.16;5060370;28;19939;-62
2021/09/28 05:05:24;;;;;;;;;;;;;;;14.70;100.00;99697.78;5061774;28;19920;-62
2021/09/28 05:07:49;;;;;;;;;;;;;;;14.49;100.00;99694.22;5068586;28;19947;-62
2021/09/28 05:10:15;;;;;;;;;;;;;;;14.51;100.00;99703.63;5069081;28;19919;-62
2021/09/28 05:12:40;;;;;;;;;;;;;;;14.37;100.00;99705.88;5071113;28;19916;-62
2021/09/28 05:15:06;;;;;;;;;;;;;;;14.55;100.00;99705.22;5071199;28;20396;-62
2021/09/28 05:17:31;;;;;;;;;;;;;;;14.41;100.00;99708.31;5070943;28;20015;-63
2021/09/28 05:19:56;;;;;;;;;;;;;;;14.44;100.00;99712.53;5071595;28;19981;-62
2021/09/28 05:22:22;;;;;;;;;;;;;;;14.49;100.00;99700.22;5074242;28;19913;-62
2021/09/28 05:24:47;;;;;;;;;;;;;;;14.17;100.00;99715.19;5072253;28;19916;-62
2021/09/28 05:27:14;;;;;;;;;;;;;;;14.17;100.00;99715.19;5077682;28;19954;-62
2021/09/28 05:29:39;;;;;;;;;;;;;;;14.22;100.00;99721.06;5075346;28;19916;-62
2021/09/28 05:32:05;;;;;;;;;;;;;;;14.22;100.00;99717.63;5075669;28;19981;-63
2021/09/28 05:34:32;;;;;;;;;;;;;;;14.42;100.00;99724.69;5078540;28;19924;-62
2021/09/28 05:36:57;;;;;;;;;;;;;;;14.15;100.00;99726.50;5074798;28;19920;-63
2021/09/28 05:39:22;;;;;;;;;;;;;;;14.40;100.00;99731.66;5071324;28;19919;-63
2021/09/28 05:41:48;;;;;;;;;;;;;;;14.43;100.00;99721.19;5073857;28;19916;-63
2021/09/28 05:44:13;;;;;;;;;;;;;;;14.26;100.00;99731.31;5075550;28;19920;-63
2021/09/28 05:46:39;;;;;;;;;;;;;;;14.20;100.00;99735.81;5073000;28;19916;-63
2021/09/28 05:49:04;;;;;;;;;;;;;;;14.04;100.00;99734.66;5076745;28;20199;-62
2021/09/28 05:51:29;;;;;;;;;;;;;;;13.96;100.00;99736.66;5074640;28;19916;-63
2021/09/28 05:53:57;;;;;;;;;;;;;;;14.11;100.00;99740.47;5078522;28;19965;-63
2021/09/28 05:56:23;;;;;;;;;;;;;;;13.68;100.00;99747.91;5075768;28;20287;-63
2021/09/28 05:58:48;;;;;;;;;;;;;;;13.85;100.00;99747.38;5078699;28;19915;-62
2021/09/28 06:01:14;;;;;;;;;;;;;;;13.74;100.00;99742.56;5072772;28;20003;-63
2021/09/28 06:03:39;;;;;;;;;;;;;;;14.08;100.00;99749.19;5077729;28;21168;-63
2021/09/28 06:06:04;;;;;;;;;;;;;;;14.11;100.00;99746.47;5083853;28;19927;-62
2021/09/28 06:08:30;;;;;;;;;;;;;;;13.61;100.00;99746.44;5098591;28;19937;-63
2021/09/28 06:10:55;;;;;;;;;;;;;;;13.65;100.00;99747.19;5079913;28;19912;-63
2021/09/28 06:13:20;;;;;;;;;;;;;;;13.36;100.00;99742.06;5078307;28;20511;-63
2021/09/28 06:15:46;;;;;;;;;;;;;;;13.70;100.00;99761.66;5097767;28;19918;-63
2021/09/28 06:18:11;;;;;;;;;;;;;;;13.80;100.00;99760.47;5097174;28;19962;-62
2021/09/28 06:20:36;;;;;;;;;;;;;;;14.09;100.00;99753.47;5097400;28;20014;-62
2021/09/28 06:23:02;;;;;;;;;;;;;;;13.93;100.00;99757.47;5098992;28;19916;-62
2021/09/28 06:25:27;;;;;;;;;;;;;;;13.71;100.00;99763.38;5097072;28;19969;-62
2021/09/28 06:27:52;;;;;;;;;;;;;;;13.65;100.00;99771.31;5097847;28;19920;-62
2021/09/28 06:30:18;;;;;;;;;;;;;;;13.79;100.00;99763.09;5095812;28;19920;-62
2021/09/28 06:32:43;;;;;;;;;;;;;;;13.92;100.00;99766.16;5070810;28;19918;-63
2021/09/28 06:35:09;;;;;;;;;;;;;;;13.96;100.00;99762.56;5067021;28;19916;-62
2021/09/28 06:37:34;;;;;;;;;;;;;;;14.17;100.00;99763.56;5076216;28;19920;-62
2021/09/28 06:40:03;;;;;;;;;;;;;;;14.48;100.00;99765.06;5097813;28;20437;-62
2021/09/28 06:42:28;;;;;;;;;;;;;;;14.14;100.00;99761.94;5102661;28;19958;-62
2021/09/28 06:45:29;;;;;;;;;;;;;;;14.11;100.00;99761.19;5100657;28;20281;-62
2021/09/28 06:48:15;;;;;;;;;;;;;;;14.41;100.00;99761.84;5096327;28;19919;-62
2021/09/28 06:50:41;;;;;;;;;;;;;;;14.86;100.00;99763.72;5081916;28;19915;-62
2021/09/28 06:53:06;;;;;;;;;;;;;;;14.27;100.00;99756.31;5075998;28;19923;-63
2021/09/28 06:55:32;;;;;;;;;;;;;;;14.89;100.00;99771.38;5081192;28;19931;-62
2021/09/28 06:57:57;;;;;;;;;;;;;;;15.11;100.00;99774.00;5081863;28;19922;-63
2021/09/28 07:00:23;;;;;;;;;;;;;;;14.76;100.00;99770.16;5077803;28;19920;-62
2021/09/28 07:02:48;;;;;;;;;;;;;;;15.12;100.00;99767.94;5076268;28;19962;-62
2021/09/28 07:05:14;;;;;;;;;;;;;;;14.54;100.00;99770.03;5064517;28;20655;-62
2021/09/28 07:13:46;;;;;;;;;;;;;;;15.33;100.00;99768.00;5100936;28;20293;-62
2021/09/28 07:16:12;;;;;;;;;;;;;;;15.53;100.00;99769.78;5096529;28;20517;-62
2021/09/28 07:18:37;;;;;;;;;;;;;;;15.56;100.00;99764.50;5078974;28;20006;-63
2021/09/28 07:21:03;;;;;;;;;;;;;;;15.84;100.00;99766.81;5084171;28;19916;-63
2021/09/28 07:23:29;;;;;;;;;;;;;;;15.83;100.00;99771.19;5075118;28;19916;-63
2021/09/28 07:25:55;;;;;;;;;;;;;;;15.54;100.00;99763.69;5085804;28;19927;-63
2021/09/28 07:28:20;;;;;;;;;;;;;;;16.03;100.00;99766.88;5087950;28;19920;-63
2021/09/28 07:30:46;;;;;;;;;;;;;;;16.09;100.00;99770.06;5086097;28;20286;-63
2021/09/28 07:33:11;;;;;;;;;;;;;;;16.07;100.00;99768.47;5087784;28;19953;-62
2021/09/28 07:35:37;;;;;;;;;;;;;;;16.23;100.00;99773.84;5085618;28;20140;-63
2021/09/28 07:38:02;;;;;;;;;;;;;;;16.52;100.00;99772.59;5087506;28;19947;-63
2021/09/28 07:40:28;;;;;;;;;;;;;;;16.61;100.00;99769.56;5089919;28;20000;-63
2021/09/28 07:43:03;;;;;;;;;;;;;;;16.00;100.00;99767.03;5082736;28;20014;-63
2021/09/28 07:45:28;;;;;;;;;;;;;;;16.36;100.00;99768.97;5102745;28;19938;-63
2021/09/28 07:47:53;;;;;;;;;;;;;;;16.23;100.00;99773.84;5087620;28;19916;-63
2021/09/28 07:50:19;;;;;;;;;;;;;;;16.51;100.00;99769.16;5071252;28;19927;-63
2021/09/28 07:52:44;;;;;;;;;;;;;;;16.02;100.00;99771.25;5081491;28;19965;-62
2021/09/28 07:55:12;;;;;;;;;;;;;;;16.55;100.00;99763.81;5084737;28;19994;-63
2021/09/28 07:57:37;;;;;;;;;;;;;;;17.11;100.00;99763.03;5070289;28;19916;-63
2021/09/28 08:00:06;;;;;;;;;;;;;;;16.56;100.00;99768.94;5069145;28;19969;-63
2021/09/28 08:02:31;;;;;;;;;;;;;;;17.05;100.00;99766.72;5082722;28;19911;-63
2021/09/28 08:04:57;;;;;;;;;;;;;;;17.19;100.00;99770.47;5098875;28;19923;-62
2021/09/28 08:07:22;;;;;;;;;;;;;;;17.45;100.00;99770.06;5082927;28;19976;-63
2021/09/28 08:09:48;;;;;;;;;;;;;;;17.46;100.00;99763.94;5101400;28;20330;-63
2021/09/28 08:12:13;;;;;;;;;;;;;;;17.98;100.00;99764.00;5082812;28;19923;-63
2021/09/28 08:14:38;;;;;;;;;;;;;;;17.90;100.00;99771.38;5100280;28;19915;-63
2021/09/28 08:17:04;;;;;;;;;;;;;;;17.81;100.00;99781.38;5100657;28;20297;-63
2021/09/28 08:19:29;;;;;;;;;;;;;;;18.00;100.00;99771.75;5083353;28;19912;-63
2021/09/28 08:21:54;;;;;;;;;;;;;;;18.37;100.00;99778.53;5100707;28;19920;-62
2021/09/28 08:24:20;;;;;;;;;;;;;;;18.16;100.00;99779.66;5102172;28;19919;-63
2021/09/28 08:29:30;;;;;;;;;;;;;;;17.91;100.00;99767.84;5098142;28;19934;-62
2021/09/28 08:31:55;;;;;;;;;;;;;;;18.53;100.00;99775.13;5101753;28;20006;-63
2021/09/28 08:34:21;;;;;;;;;;;;;;;18.64;100.00;99764.97;5099082;28;19927;-63
2021/09/28 08:36:47;;;;;;;;;;;;;;;18.95;100.00;99769.44;5096824;28;19915;-63
2021/09/28 08:39:15;;;;;;;;;;;;;;;18.75;100.00;99773.06;5096782;28;19912;-62
2021/09/28 08:41:40;;;;;;;;;;;;;;;19.06;100.00;99768.81;5100037;28;19923;-63
2021/09/28 08:44:06;;;;;;;;;;;;;;;18.95;100.00;99773.78;5099072;28;19927;-63
2021/09/28 08:46:31;;;;;;;;;;;;;;;18.99;100.00;99775.31;5101884;28;19966;-63
2021/09/28 08:48:57;;;;;;;;;;;;;;;19.35;100.00;99771.63;5096717;28;19922;-63
2021/09/28 08:51:22;;;;;;;;;;;;;;;18.80;100.00;99771.09;5100847;28;19981;-62
2021/09/28 08:53:49;;;;;;;;;;;;;;;18.58;100.00;99771.34;5083380;28;19912;-62
2021/09/28 08:56:14;;;;;;;;;;;;;;;18.49;100.00;99771.00;5100308;28;19916;-62
2021/09/28 08:58:59;;;;;;;;;;;;;;;18.21;100.00;99772.44;5101729;28;20000;-62
2021/09/28 09:01:24;;;;;;;;;;;;;;;19.55;100.00;99765.28;5100080;28;19926;-63
2021/09/28 09:03:50;;;;;;;;;;;;;;;19.72;100.00;99769.56;5082888;28;19912;-63
2021/09/28 09:06:17;;;;;;;;;;;;;;;19.27;100.00;99764.19;5101078;28;19951;-62
2021/09/28 09:08:48;;;;;;;;;;;;;;;19.45;100.00;99762.31;5101342;28;19927;-63
2021/09/28 09:11:13;;;;;;;;;;;;;;;18.93;100.00;99754.75;5101487;28;20452;-62
2021/09/28 09:13:39;;;;;;;;;;;;;;;19.81;100.00;99758.56;5101161;28;20003;-63
2021/09/28 09:16:05;;;;;;;;;;;;;;;19.65;100.00;99758.56;5099202;28;19919;-62
2021/09/28 09:18:32;;;;;;;;;;;;;;;20.08;100.00;99756.09;5099058;28;19912;-63
2021/09/28 09:20:58;;;;;;;;;;;;;;;20.54;100.00;99758.56;5098767;28;19927;-63
2021/09/28 09:23:28;;;;;;;;;;;;;;;18.53;100.00;99762.09;5081406;28;20353;-62
2021/09/28 09:26:01;;;;;;;;;;;;;;;18.99;100.00;99759.66;5098828;28;19926;-62
2021/09/28 09:28:33;;;;;;;;;;;;;;;18.96;100.00;99757.22;5099357;28;19915;-63
2021/09/28 09:31:29;;;;;;;;;;;;;;;19.07;100.00;99754.88;5095061;28;20437;-63
2021/09/28 09:33:55;;;;;;;;;;;;;;;19.71;100.00;99758.25;5095339;28;19916;-63
2021/09/28 09:36:21;;;;;;;;;;;;;;;19.31;100.00;99746.59;5099469;28;20274;-63
2021/09/28 09:38:48;;;;;;;;;;;;;;;18.88;100.00;99746.34;5095830;28;19934;-63
2021/09/28 09:41:13;;;;;;;;;;;;;;;19.04;100.00;99741.97;5096602;28;20282;-62
2021/09/28 09:43:39;;;;;;;;;;;;;;;18.38;100.00;99740.25;5096970;28;19916;-63
2021/09/28 09:46:14;;;;;;;;;;;;;;;19.54;100.00;99740.88;5095868;28;19931;-63
2021/09/28 09:48:41;;;;;;;;;;;;;;;19.40;100.00;99738.22;5094789;28;19916;-63
2021/09/28 09:51:10;;;;;;;;;;;;;;;20.05;100.00;99741.44;5096325;28;20261;-63
2021/09/28 09:53:52;;;;;;;;;;;;;;;20.72;100.00;99740.09;5094831;28;19973;-63
2021/09/28 09:56:17;;;;;;;;;;;;;;;20.80;100.00;99733.44;5097472;28;20002;-63
2021/09/28 09:58:43;;;;;;;;;;;;;;;20.91;100.00;99726.66;5097043;28;20002;-62
2021/09/28 10:01:08;;;;;;;;;;;;;;;21.24;100.00;99719.28;5079378;28;19919;-63
2021/09/28 10:03:38;;;;;;;;;;;;;;;20.17;100.00;99736.41;5098056;28;20319;-63
2021/09/28 10:06:04;;;;;;;;;;;;;;;19.98;100.00;99727.06;5095042;28;19923;-62
2021/09/28 10:08:29;;;;;;;;;;;;;;;20.51;100.00;99726.53;5096874;28;19956;-63
2021/09/28 10:10:56;;;;;;;;;;;;;;;20.28;100.00;99726.16;5079508;28;19924;-63
2021/09/28 10:13:40;;;;;;;;;;;;;;;19.96;100.00;99731.53;5079072;28;19912;-63
2021/09/28 10:16:24;;;;;;;;;;;;;;;18.24;100.00;99730.53;5094812;28;19924;-63
2021/09/28 10:18:49;;;;;;;;;;;;;;;19.73;100.00;99724.19;5096607;28;19923;-63
2021/09/28 10:21:33;;;;;;;;;;;;;;;19.96;100.00;99728.09;5094998;28;19928;-62
2021/09/28 10:24:25;;;;;;;;;;;;;;;21.23;100.00;99715.00;5094715;28;19919;-62
2021/09/28 10:27:00;;;;;;;;;;;;;;;21.86;98.34;99717.88;5091390;28;19924;-62
2021/09/28 10:29:37;;;;;;;;;;;;;;;21.08;100.00;99721.22;5095119;28;20287;-62
2021/09/28 10:32:26;;;;;;;;;;;;;;;21.98;95.72;99714.44;5093828;28;20384;-62
2021/09/28 10:35:07;;;;;;;;;;;;;;;21.92;100.00;99722.72;5084013;28;19912;-63
2021/09/28 10:37:41;;;;;;;;;;;;;;;21.54;100.00;99717.41;5096336;28;19916;-62
2021/09/28 10:40:07;;;;;;;;;;;;;;;21.59;100.00;99716.16;5095620;28;19920;-62
2021/09/28 10:42:52;;;;;;;;;;;;;;;21.69;99.39;99705.88;5097212;28;19912;-63
2021/09/28 10:45:18;;;;;;;;;;;;;;;21.75;95.25;99712.53;5079288;28;19912;-62
2021/09/28 10:47:50;;;;;;;;;;;;;;;22.30;93.53;99711.41;5097613;28;20385;-62
2021/09/28 10:50:20;;;;;;;;;;;;;;;22.43;96.14;99711.41;5093843;28;19920;-62
2021/09/28 10:52:46;;;;;;;;;;;;;;;20.72;92.80;99712.13;5077371;28;19911;-63
2021/09/28 10:55:12;;;;;;;;;;;;;;;22.22;97.39;99708.50;5098049;28;19939;-62
2021/09/28 10:58:01;;;;;;;;;;;;;;;22.72;89.95;99706.72;5099859;28;19969;-62
2021/09/28 11:00:27;;;;;;;;;;;;;;;22.44;85.33;99706.06;5100133;28;20037;-62
2021/09/28 11:02:53;;;;;;;;;;;;;;;22.86;94.63;99709.19;5098822;28;19923;-63
2021/09/28 11:05:28;;;;;;;;;;;;;;;22.77;84.80;99704.59;5100516;28;20334;-62
2021/09/28 11:07:54;;;;;;;;;;;;;;;22.24;87.68;99703.97;5099342;28;19912;-62
2021/09/28 11:10:19;;;;;;;;;;;;;;;23.20;82.95;99701.53;5101510;28;19916;-62
2021/09/28 11:12:45;;;;;;;;;;;;;;;23.40;82.31;99694.81;5099091;28;19919;-62
2021/09/28 11:15:10;;;;;;;;;;;;;;;23.51;84.22;99704.50;5101457;28;19916;-62
2021/09/28 11:17:36;;;;;;;;;;;;;;;23.07;79.58;99696.34;5101836;28;19915;-62
2021/09/28 11:20:01;;;;;;;;;;;;;;;23.55;87.44;99700.72;5094692;28;19915;-62
2021/09/28 11:22:27;;;;;;;;;;;;;;;23.91;70.57;99693.66;5102082;28;19912;-62
2021/09/28 11:24:52;;;;;;;;;;;;;;;23.82;82.38;99704.88;5100158;28;19912;-62
2021/09/28 11:27:18;;;;;;;;;;;;;;;23.08;73.51;99697.16;5100740;28;20277;-62
2021/09/28 11:29:43;;;;;;;;;;;;;;;22.20;74.44;99697.22;5100587;28;19924;-62
2021/09/28 11:32:09;;;;;;;;;;;;;;;23.88;79.57;99702.63;5099876;28;20527;-62
2021/09/28 11:34:35;;;;;;;;;;;;;;;23.83;91.01;99696.03;5100396;28;19923;-62
2021/09/28 11:37:02;;;;;;;;;;;;;;;22.67;77.79;99693.94;5081600;28;19922;-62
2021/09/28 11:39:31;;;;;;;;;;;;;;;22.74;99.28;99695.16;5102460;28;19912;-62
2021/09/28 11:41:57;;;;;;;;;;;;;;;23.41;86.37;99693.03;5096493;28;19927;-62
2021/09/28 11:44:22;;;;;;;;;;;;;;;22.87;73.32;99695.09;5080768;28;19915;-62
2021/09/28 11:46:49;;;;;;;;;;;;;;;23.37;79.88;99687.97;5080346;28;20371;-62
2021/09/28 11:49:14;;;;;;;;;;;;;;;22.31;74.48;99686.88;5089591;28;19916;-62
2021/09/28 11:51:40;;;;;;;;;;;;;;;22.06;91.11;99687.69;5073036;28;20367;-62
2021/09/28 11:54:07;;;;;;;;;;;;;;;21.55;87.78;99682.38;5089956;28;19988;-62
2021/09/28 11:56:34;;;;;;;;;;;;;;;22.28;83.84;99679.19;5106908;28;19916;-62
2021/09/28 11:58:59;;;;;;;;;;;;;;;23.62;79.24;99672.16;5108866;28;19945;-62
2021/09/28 12:01:25;;;;;;;;;;;;;;;24.28;81.15;99667.13;5088876;28;20486;-62
2021/09/28 12:06:47;;;;;;;;;;;;;;;24.41;77.76;99673.09;5106381;28;19920;-62
2021/09/28 12:09:13;;;;;;;;;;;;;;;24.60;82.83;99662.81;5071665;28;19970;-62
2021/09/28 12:11:59;;;;;;;;;;;;;;;24.97;75.86;99659.81;5082856;28;19955;-62
2021/09/28 12:14:31;;;;;;;;;;;;;;;25.72;75.85;99659.88;5099164;28;20304;-62
2021/09/28 12:17:06;;;;;;;;;;;;;;;25.38;71.40;99655.63;5082070;28;20038;-62
2021/09/28 12:19:35;;;;;;;;;;;;;;;25.46;70.33;99655.00;5100383;28;19919;-63
2021/09/28 12:22:00;;;;;;;;;;;;;;;25.22;80.78;99647.31;5079811;28;19931;-63
2021/09/28 12:24:29;;;;;;;;;;;;;;;25.40;76.75;99640.50;5097215;28;19916;-62
2021/09/28 12:26:54;;;;;;;;;;;;;;;25.34;82.51;99646.31;5080312;28;20004;-63
2021/09/28 12:29:21;;;;;;;;;;;;;;;25.35;73.58;99641.88;5078382;28;19916;-63
2021/09/28 12:31:47;;;;;;;;;;;;;;;25.17;82.39;99638.91;5094994;28;19943;-62
2021/09/28 12:34:12;;;;;;;;;;;;;;;25.71;85.11;99632.66;5081614;28;19912;-63
2021/09/28 12:36:40;;;;;;;;;;;;;;;25.71;65.07;99630.03;5099361;28;20019;-63
2021/09/28 12:39:32;;;;;;;;;;;;;;;25.29;87.03;99622.09;5097651;28;19920;-63
2021/09/28 12:41:58;;;;;;;;;;;;;;;25.73;66.56;99628.09;5093791;28;19915;-63
2021/09/28 12:44:24;;;;;;;;;;;;;;;25.98;82.88;99628.63;5098495;28;20005;-63
2021/09/28 12:46:49;;;;;;;;;;;;;;;26.24;78.25;99619.28;5099720;28;19954;-63
2021/09/28 12:49:27;;;;;;;;;;;;;;;26.09;68.19;99620.63;5100512;28;19926;-62